Flight Track Log - Related Links

Times and Time Zones

All times are in EDT time to prevent confusion due to time zone crossing. See the EMD21 flight status page for this flight to view local times or setup timezone preferences in your user account.

Time Position Orientation Groundspeed Altitude Reporting Facility
EDT Latitude Longitude Course Direction KTS MPH feet Rate Location/Type
Sun 05:03:14 AM 36.6908 -97.0461 121° Southeast 145 167 3,200  Level Kansas City Center
Sun 05:04:13 AM 36.6669 -96.9967 121° Southeast 161 185 4,600 1,462 Climbing Kansas City Center
Sun 05:05:13 AM 36.6461 -96.9461 117° Southeast 164 189 6,100 1,200 Climbing Kansas City Center
Sun 05:06:13 AM 36.6236 -96.8958 119° Southeast 166 191 7,000 446 Climbing Kansas City Center
Sun 05:07:14 AM 36.5975 -96.8308 117° Southeast 202 232 7,000 -50 Level Kansas City Center
Sun 05:08:14 AM 36.5708 -96.7664 117° Southeast 216 249 6,900 -50 Descending Kansas City Center
Sun 05:09:14 AM 36.5400 -96.6950 118° Southeast 221 254 6,900  Level Kansas City Center
Sun 05:10:14 AM 36.5117 -96.6253 117° Southeast 225 259 6,900  Level Kansas City Center
Sun 05:11:16 AM 36.4814 -96.5550 118° Southeast 229 264 6,900  Level Kansas City Center
Sun 05:12:15 AM 36.4508 -96.4858 119° Southeast 228 262 6,900  Level Kansas City Center
Sun 05:12:30 AM 36.4425 -96.4669 119° Southeast 228 262 6,900  Level Kansas City Center
Sun 05:13:15 AM 36.4206 -96.4172 119° Southeast 227 261 6,900  Level Kansas City Center
Sun 05:13:30 AM 36.4139 -96.3978 113° Southeast 227 261 6,900  Level Kansas City Center
Sun 05:14:17 AM 36.4061 -96.3389 99° East 234 269 6,900  Level Kansas City Center
Sun 05:15:16 AM 36.3903 -96.2642 105° East 225 259 6,900 -162 Level Kansas City Center
Sun 05:15:31 AM 36.3819 -96.2383 112° Southeast 231 266 6,700 -900 Descending Kansas City Center
Sun 05:16:16 AM 36.3694 -96.1839 106° East 238 274 6,000 -1,000 Descending Kansas City Center
Sun 05:16:31 AM 36.3644 -96.1550 102° East 252 290 5,700 -1,000 Descending Kansas City Center
Sun 05:17:16 AM 36.3542 -96.0997 103° East 249 287 5,000 -1,000 Descending Kansas City Center
Sun 05:17:31 AM 36.3472 -96.0717 107° East 249 287 4,700 -1,000 Descending Kansas City Center
Sun 05:18:16 AM 36.3317 -96.0214 111° Southeast 244 281 4,000 -1,200 Descending Kansas City Center
Sun 05:18:31 AM 36.3219 -95.9972 117° Southeast 232 267 3,500 -1,279 Descending Kansas City Center
Sun 05:19:17 AM 36.3019 -95.9528 119° Southeast 231 266 2,700 -1,161 Descending Kansas City Center
Sun 05:19:33 AM 36.2894 -95.9339 129° Southeast 213 245 2,300 -700 Descending Kansas City Center
Sun 05:20:17 AM 36.2689 -95.9050 131° Southeast 201 231 2,000 -700 Descending Kansas City Center
Sun 05:20:33 AM 36.2550 -95.8997 163° South 139 160 1,600 -1,000 Descending Kansas City Center
Sun 05:21:17 AM 36.2322 -95.8958 172° South 158 182 1,000 -689 Descending Kansas City Center
Sun 05:21:34 AM 36.2214 -95.8989 193° South 104 120 900 -300 Descending Kansas City Center
Sun 05:22:17 AM 36.1997 -95.8992 181° South 135 155 700 -279 Descending Kansas City Center
Sun 05:24:00 AM 36.1984 -95.8881 130° Southeast  Level Estimated
Sun 05:31:00 AM 36.1984 -95.8881 130° Southeast  Level Estimated

Login

Don't have an account? Register now (free) for customized features, flight alerts, and more!